createdAt,value
2017-12-17T00:00:27.210Z,3.50
2017-12-17T00:01:30.775Z,4.00
2017-12-17T00:02:34.309Z,6.00
2017-12-17T00:03:37.875Z,3.00
2017-12-17T00:04:41.726Z,4.50
2017-12-17T00:05:44.826Z,6.50
2017-12-17T00:06:48.100Z,6.00
2017-12-17T00:07:51.344Z,2.50
2017-12-17T00:08:54.331Z,5.00
2017-12-17T00:09:57.482Z,2.00
2017-12-17T00:11:00.818Z,5.00
2017-12-17T00:12:04.258Z,4.00
2017-12-17T00:13:07.676Z,5.00
2017-12-17T00:14:10.973Z,4.00
2017-12-17T00:15:13.968Z,4.00
2017-12-17T00:16:16.976Z,4.00
2017-12-17T00:17:19.838Z,2.00
2017-12-17T00:18:22.803Z,3.00
2017-12-17T00:19:25.864Z,4.00
2017-12-17T00:20:29.230Z,4.00
2017-12-17T00:21:32.255Z,4.00
2017-12-17T00:22:35.223Z,7.50
2017-12-17T00:23:38.208Z,2.50
2017-12-17T00:24:41.206Z,4.50
2017-12-17T00:25:44.182Z,5.00
2017-12-17T00:26:47.517Z,6.50
2017-12-17T00:27:50.451Z,6.50
2017-12-17T00:28:53.462Z,5.00
2017-12-17T00:29:57.024Z,6.50
2017-12-17T00:31:00.026Z,5.50
2017-12-17T00:32:02.962Z,4.00
2017-12-17T00:33:06.040Z,2.50
2017-12-17T00:34:08.989Z,5.00
2017-12-17T00:35:11.869Z,5.00
2017-12-17T00:36:15.008Z,2.50
2017-12-17T00:37:18.100Z,3.50
2017-12-17T00:38:21.039Z,4.00
2017-12-17T00:39:24.454Z,6.00
2017-12-17T00:40:27.466Z,3.00
2017-12-17T00:41:30.442Z,4.50
2017-12-17T00:42:33.407Z,4.00
2017-12-17T00:43:36.424Z,2.50
2017-12-17T00:44:39.404Z,4.00
2017-12-17T00:45:42.683Z,4.50
2017-12-17T00:46:45.730Z,4.00
2017-12-17T00:47:48.765Z,4.50
2017-12-17T00:48:51.721Z,5.50
2017-12-17T00:49:54.762Z,4.00
2017-12-17T00:50:57.874Z,4.00
2017-12-17T00:52:01.094Z,4.00
2017-12-17T00:53:04.040Z,5.00
2017-12-17T00:54:07.075Z,5.00
2017-12-17T00:55:10.090Z,4.00
2017-12-17T00:56:13.023Z,5.00
2017-12-17T00:57:16.019Z,4.00
2017-12-17T00:58:19.809Z,4.50
2017-12-17T00:59:22.712Z,4.00
2017-12-17T01:00:25.652Z,3.50
2017-12-17T01:01:28.670Z,3.00
2017-12-17T01:02:31.644Z,6.00
2017-12-17T01:03:34.598Z,4.00
2017-12-17T01:04:37.896Z,3.50
2017-12-17T01:05:40.883Z,4.00
2017-12-17T01:06:43.883Z,4.00
2017-12-17T01:07:46.881Z,2.00
2017-12-17T01:08:49.795Z,4.00
2017-12-17T01:09:52.706Z,5.50
2017-12-17T01:10:55.917Z,6.00
2017-12-17T01:11:58.916Z,4.00
2017-12-17T01:13:01.896Z,4.00
2017-12-17T01:14:04.895Z,3.50
2017-12-17T01:15:07.838Z,5.50
2017-12-17T01:16:10.846Z,6.00
2017-12-17T01:17:14.104Z,4.50
2017-12-17T01:18:17.060Z,6.00
2017-12-17T01:19:20.053Z,8.50
2017-12-17T01:20:22.982Z,5.00
2017-12-17T01:21:26.278Z,6.00
2017-12-17T01:22:29.224Z,4.50
2017-12-17T01:23:32.488Z,5.00
2017-12-17T01:24:35.593Z,4.00
2017-12-17T01:25:38.559Z,6.00
2017-12-17T01:26:41.460Z,5.00
2017-12-17T01:27:44.442Z,4.00
2017-12-17T01:28:47.446Z,3.00
2017-12-17T01:29:50.870Z,4.00
2017-12-17T01:30:53.926Z,6.00
2017-12-17T01:31:56.839Z,4.50
2017-12-17T01:32:59.809Z,4.50
2017-12-17T01:34:02.742Z,4.50
2017-12-17T01:35:05.709Z,5.50
2017-12-17T01:36:08.944Z,8.00
2017-12-17T01:37:11.915Z,4.50
2017-12-17T01:38:14.889Z,6.50
2017-12-17T01:39:17.824Z,6.00
2017-12-17T01:40:20.800Z,5.50
2017-12-17T01:41:23.778Z,5.50
2017-12-17T01:42:27.635Z,6.00
2017-12-17T01:43:30.563Z,7.50
2017-12-17T01:44:33.508Z,6.50
2017-12-17T01:45:36.476Z,6.50
2017-12-17T01:46:39.468Z,7.50
2017-12-17T01:47:42.392Z,6.00
2017-12-17T01:48:45.737Z,7.50
2017-12-17T01:49:48.676Z,4.50
2017-12-17T01:50:51.635Z,8.00
2017-12-17T01:51:54.656Z,6.00
2017-12-17T01:52:57.746Z,5.50
2017-12-17T01:54:00.691Z,4.50
2017-12-17T01:55:03.935Z,6.00
2017-12-17T01:56:06.910Z,4.50
2017-12-17T01:57:09.828Z,4.00
2017-12-17T01:58:12.776Z,6.00
2017-12-17T01:59:15.725Z,7.00
2017-12-17T02:00:18.649Z,4.00
2017-12-17T02:01:29.561Z,6.00
2017-12-17T02:02:32.586Z,6.00
2017-12-17T02:03:35.628Z,8.00
2017-12-17T02:04:38.631Z,5.00
2017-12-17T02:05:41.612Z,6.00
2017-12-17T02:06:44.630Z,5.00
2017-12-17T02:07:47.527Z,7.50
2017-12-17T02:08:50.482Z,7.50
2017-12-17T02:09:53.430Z,4.00
2017-12-17T02:10:56.394Z,4.50
2017-12-17T02:11:59.365Z,4.00
2017-12-17T02:13:02.411Z,6.00
2017-12-17T02:14:05.672Z,6.00
2017-12-17T02:15:08.622Z,4.00
2017-12-17T02:16:11.546Z,3.00
2017-12-17T02:17:14.460Z,5.00
2017-12-17T02:18:17.450Z,5.00
2017-12-17T02:19:20.462Z,3.50
2017-12-17T02:20:23.733Z,4.00
2017-12-17T02:21:27.606Z,4.00
2017-12-17T02:22:30.593Z,2.00
2017-12-17T02:23:33.627Z,4.50
2017-12-17T02:24:36.581Z,2.00
2017-12-17T02:25:39.533Z,4.50
2017-12-17T02:26:42.485Z,4.50
2017-12-17T02:27:45.446Z,4.00
2017-12-17T02:28:48.453Z,6.00
2017-12-17T02:29:51.401Z,5.00
2017-12-17T02:30:54.406Z,2.50
2017-12-17T02:31:57.740Z,2.50
2017-12-17T02:33:00.723Z,4.50
2017-12-17T02:34:03.812Z,6.00
2017-12-17T02:35:06.834Z,4.50
2017-12-17T02:36:09.858Z,4.00
2017-12-17T02:37:12.825Z,4.00
2017-12-17T02:38:16.080Z,2.00
2017-12-17T02:39:19.080Z,7.00
2017-12-17T02:40:22.092Z,5.00
2017-12-17T02:41:25.069Z,4.00
2017-12-17T02:42:28.047Z,4.00
2017-12-17T02:43:31.068Z,3.50
2017-12-17T02:44:34.312Z,4.00
2017-12-17T02:45:37.264Z,6.00
2017-12-17T02:46:40.217Z,4.00
2017-12-17T02:47:43.131Z,2.00
2017-12-17T02:48:46.079Z,2.00
2017-12-17T02:49:49.044Z,4.00
2017-12-17T02:50:52.327Z,4.50
2017-12-17T02:51:55.260Z,4.00
2017-12-17T02:52:58.214Z,6.00
2017-12-17T02:54:01.192Z,4.00
2017-12-17T02:55:04.264Z,5.00
2017-12-17T02:56:07.532Z,4.00
2017-12-17T02:57:10.498Z,2.00
2017-12-17T02:58:13.474Z,5.00
2017-12-17T02:59:16.446Z,2.00
2017-12-17T03:00:23.287Z,6.00
2017-12-17T03:01:26.233Z,6.00
2017-12-17T03:02:29.487Z,5.00
2017-12-17T03:03:32.511Z,4.00
2017-12-17T03:04:35.364Z,6.50
2017-12-17T03:05:38.210Z,4.50
2017-12-17T03:06:41.060Z,2.00
2017-12-17T03:07:43.835Z,5.50
2017-12-17T03:08:46.931Z,6.00
2017-12-17T03:09:49.750Z,3.50
2017-12-17T03:10:52.653Z,4.00
2017-12-17T03:11:55.528Z,4.00
2017-12-17T03:12:58.436Z,4.00
2017-12-17T03:14:01.379Z,5.50
2017-12-17T03:15:04.683Z,2.50
2017-12-17T03:16:07.789Z,4.00
2017-12-17T03:17:10.739Z,5.00
2017-12-17T03:18:13.689Z,2.00
2017-12-17T03:19:16.689Z,3.00
2017-12-17T03:20:19.672Z,4.00
2017-12-17T03:21:23.007Z,4.00
2017-12-17T03:22:25.986Z,3.50
2017-12-17T03:23:28.892Z,2.50
2017-12-17T03:24:31.848Z,3.50
2017-12-17T03:25:34.809Z,4.50
2017-12-17T03:26:37.858Z,2.00
2017-12-17T03:27:40.791Z,4.00
2017-12-17T03:28:43.762Z,3.50
2017-12-17T03:29:46.717Z,4.00
2017-12-17T03:30:49.671Z,3.50
2017-12-17T03:31:52.663Z,6.00
2017-12-17T03:32:55.903Z,3.50
2017-12-17T03:33:58.818Z,6.00
2017-12-17T03:35:01.799Z,4.00
2017-12-17T03:36:04.901Z,2.00
2017-12-17T03:37:07.871Z,4.00
2017-12-17T03:38:10.802Z,2.00
2017-12-17T03:39:14.025Z,2.50
2017-12-17T03:40:16.971Z,1.50
2017-12-17T03:41:19.942Z,2.00
2017-12-17T03:42:22.955Z,3.00
2017-12-17T03:43:25.972Z,2.00
2017-12-17T03:44:28.945Z,3.00
2017-12-17T03:45:32.202Z,2.50
2017-12-17T03:46:35.530Z,2.50
2017-12-17T03:47:38.454Z,2.00
2017-12-17T03:48:41.406Z,1.50
2017-12-17T03:49:44.388Z,2.50
2017-12-17T03:50:47.560Z,2.50
2017-12-17T03:51:50.814Z,2.00
2017-12-17T03:52:53.763Z,2.00
2017-12-17T03:53:56.714Z,3.50
2017-12-17T03:54:59.664Z,2.00
2017-12-17T03:56:02.604Z,4.00
2017-12-17T03:57:05.515Z,4.00
2017-12-17T03:58:08.776Z,2.00
2017-12-17T03:59:11.726Z,4.00
2017-12-17T04:00:14.656Z,4.00
2017-12-17T04:01:17.656Z,2.00
2017-12-17T04:02:20.646Z,2.00
2017-12-17T04:03:23.602Z,4.00
2017-12-17T04:04:26.882Z,2.00
2017-12-17T04:05:29.856Z,4.00
2017-12-17T04:06:32.798Z,4.00
2017-12-17T04:07:35.808Z,2.00
2017-12-17T04:08:38.706Z,5.00
2017-12-17T04:09:41.593Z,5.00
2017-12-17T04:10:44.780Z,3.50
2017-12-17T04:11:47.707Z,4.00
2017-12-17T04:12:50.698Z,3.50
2017-12-17T04:13:53.564Z,4.00
2017-12-17T04:14:56.611Z,2.00
2017-12-17T04:15:59.557Z,4.00
2017-12-17T04:17:02.877Z,4.00
2017-12-17T04:18:05.860Z,4.00
2017-12-17T04:19:08.842Z,3.50
2017-12-17T04:20:11.828Z,6.00
2017-12-17T04:21:14.779Z,1.00
2017-12-17T04:22:17.772Z,3.00
2017-12-17T04:23:20.982Z,2.00
2017-12-17T04:24:23.958Z,4.00
2017-12-17T04:25:26.909Z,3.00
2017-12-17T04:26:29.840Z,4.00
2017-12-17T04:27:32.807Z,3.00
2017-12-17T04:28:35.767Z,3.50
2017-12-17T04:29:38.994Z,2.00
2017-12-17T04:30:41.916Z,2.50
2017-12-17T04:31:48.519Z,5.50
2017-12-17T04:32:51.726Z,3.00
2017-12-17T04:33:55.188Z,2.50
2017-12-17T04:34:58.159Z,4.50
2017-12-17T04:36:01.147Z,4.00
2017-12-17T04:37:04.322Z,5.50
2017-12-17T04:38:07.287Z,2.50
2017-12-17T04:39:10.380Z,4.00
2017-12-17T04:40:13.389Z,4.00
2017-12-17T04:41:16.638Z,6.00
2017-12-17T04:42:19.543Z,3.50
2017-12-17T04:43:22.501Z,4.50
2017-12-17T04:44:25.414Z,3.50
2017-12-17T04:45:29.110Z,4.50
2017-12-17T04:46:36.888Z,5.00
2017-12-17T04:47:40.096Z,4.00
2017-12-17T04:48:42.989Z,2.00
2017-12-17T04:49:45.897Z,4.00
2017-12-17T04:50:48.851Z,2.00
2017-12-17T04:51:51.791Z,3.00
2017-12-17T04:52:54.762Z,4.50
2017-12-17T04:53:58.005Z,2.50
2017-12-17T04:55:01.009Z,4.00
2017-12-17T04:56:03.808Z,4.00
2017-12-17T04:57:06.732Z,3.50
2017-12-17T04:58:09.636Z,4.50
2017-12-17T04:59:12.578Z,5.50
2017-12-17T05:00:15.828Z,4.00
2017-12-17T05:01:18.768Z,4.00
2017-12-17T05:02:22.230Z,3.50
2017-12-17T05:03:25.233Z,5.00
2017-12-17T05:04:28.089Z,3.00
2017-12-17T05:05:31.047Z,2.50
2017-12-17T05:06:34.263Z,4.00
2017-12-17T05:07:37.187Z,5.00
2017-12-17T05:08:40.109Z,5.00
2017-12-17T05:09:43.038Z,2.50
2017-12-17T05:10:46.018Z,4.00
2017-12-17T05:11:48.961Z,6.00
2017-12-17T05:12:52.075Z,6.00
2017-12-17T05:13:54.910Z,4.00
2017-12-17T05:14:57.796Z,5.00
2017-12-17T05:16:00.750Z,4.00
2017-12-17T05:17:03.732Z,6.00
2017-12-17T05:18:06.686Z,2.50
2017-12-17T05:19:09.990Z,4.00
2017-12-17T05:20:12.940Z,6.00
2017-12-17T05:21:15.867Z,6.00
2017-12-17T05:22:18.809Z,5.50
2017-12-17T05:23:21.701Z,5.00
2017-12-17T05:24:24.601Z,2.00
2017-12-17T05:25:27.832Z,6.00
2017-12-17T05:26:30.754Z,6.00
2017-12-17T05:27:33.719Z,6.00
2017-12-17T05:28:36.635Z,3.50
2017-12-17T05:29:39.612Z,7.50
2017-12-17T05:30:42.503Z,7.50
2017-12-17T05:31:45.712Z,4.50
2017-12-17T05:32:48.587Z,6.50
2017-12-17T05:33:51.473Z,5.00
2017-12-17T05:34:54.409Z,6.00
2017-12-17T05:35:57.351Z,8.00
2017-12-17T05:37:00.150Z,7.50
2017-12-17T05:38:03.410Z,6.00
2017-12-17T05:39:06.811Z,4.00
2017-12-17T05:40:09.771Z,6.00
2017-12-17T05:41:12.743Z,7.00
2017-12-17T05:42:15.698Z,6.00
2017-12-17T05:43:18.744Z,4.00
2017-12-17T05:44:22.614Z,9.50
2017-12-17T05:45:25.591Z,9.00
2017-12-17T05:46:28.562Z,5.00
2017-12-17T05:47:31.521Z,9.50
2017-12-17T05:48:34.508Z,10.50
2017-12-17T05:49:37.461Z,6.00
2017-12-17T05:50:40.693Z,8.00
2017-12-17T05:51:43.647Z,6.00
2017-12-17T05:52:46.606Z,7.50
2017-12-17T05:53:49.563Z,6.00
2017-12-17T05:54:53.020Z,9.50
2017-12-17T05:55:56.038Z,8.00
2017-12-17T05:56:59.357Z,11.00
2017-12-17T05:58:02.329Z,9.50
2017-12-17T05:59:05.273Z,10.00
2017-12-17T06:00:08.273Z,8.00
2017-12-17T06:01:11.255Z,8.00
2017-12-17T06:02:14.231Z,8.00
2017-12-17T06:03:17.483Z,8.50
2017-12-17T06:04:20.455Z,6.00
2017-12-17T06:05:23.430Z,11.00
2017-12-17T06:06:26.375Z,8.50
2017-12-17T06:07:29.322Z,8.00
2017-12-17T06:08:32.263Z,10.00
2017-12-17T06:09:35.541Z,11.00
2017-12-17T06:10:38.486Z,10.50
2017-12-17T06:11:41.436Z,9.50
2017-12-17T06:12:44.407Z,5.50
2017-12-17T06:13:47.400Z,10.00
2017-12-17T06:14:50.348Z,8.00
2017-12-17T06:15:53.621Z,11.00
2017-12-17T06:16:56.872Z,7.00
2017-12-17T06:17:59.754Z,8.00
2017-12-17T06:19:02.657Z,7.50
2017-12-17T06:20:05.603Z,10.00
2017-12-17T06:21:08.523Z,9.50
2017-12-17T06:22:11.690Z,10.00
2017-12-17T06:23:14.589Z,6.50
2017-12-17T06:24:17.586Z,6.00
2017-12-17T06:25:20.578Z,5.00
2017-12-17T06:26:23.526Z,8.50
2017-12-17T06:27:26.503Z,9.00
2017-12-17T06:28:29.855Z,9.50
2017-12-17T06:29:33.537Z,7.50
2017-12-17T06:30:36.577Z,12.00
2017-12-17T06:31:39.955Z,13.50
2017-12-17T06:32:42.888Z,10.00
2017-12-17T06:33:45.896Z,8.50
2017-12-17T06:34:49.211Z,9.50
2017-12-17T06:35:52.196Z,8.50
2017-12-17T06:36:55.131Z,6.00
2017-12-17T06:37:58.323Z,5.50
2017-12-17T06:39:01.340Z,10.50
2017-12-17T06:40:04.313Z,5.50
2017-12-17T06:41:07.611Z,10.00
2017-12-17T06:42:10.604Z,9.00
2017-12-17T06:43:13.592Z,4.00
2017-12-17T06:44:16.621Z,9.50
2017-12-17T06:45:19.519Z,8.00
2017-12-17T06:46:23.304Z,11.00
2017-12-17T06:47:26.510Z,9.50
2017-12-17T06:48:29.519Z,8.00
2017-12-17T06:49:32.446Z,8.00
2017-12-17T06:50:35.385Z,8.00
2017-12-17T06:51:38.321Z,8.00
2017-12-17T06:52:41.285Z,8.00
2017-12-17T06:53:44.553Z,7.50
2017-12-17T06:54:47.509Z,9.50
2017-12-17T06:55:50.504Z,9.00
2017-12-17T06:56:53.541Z,4.50
2017-12-17T06:57:56.515Z,9.50
2017-12-17T06:58:59.528Z,9.00
2017-12-17T07:00:02.863Z,6.50
2017-12-17T07:01:05.850Z,10.00
2017-12-17T07:02:08.795Z,9.00
2017-12-17T07:03:11.768Z,10.00
2017-12-17T07:04:14.776Z,6.50
2017-12-17T07:05:17.776Z,11.00
2017-12-17T07:06:21.036Z,10.00
2017-12-17T07:07:23.969Z,8.00
2017-12-17T07:08:26.936Z,11.50
2017-12-17T07:09:29.948Z,9.50
2017-12-17T07:10:32.901Z,8.00
2017-12-17T07:11:35.892Z,13.00
2017-12-17T07:12:39.133Z,10.00
2017-12-17T07:13:41.996Z,12.00
2017-12-17T07:14:44.890Z,10.50
2017-12-17T07:15:47.812Z,9.50
2017-12-17T07:16:51.116Z,6.00
2017-12-17T07:17:54.062Z,10.00
2017-12-17T07:18:57.352Z,11.50
2017-12-17T07:20:00.360Z,13.50
2017-12-17T07:21:03.321Z,6.00
2017-12-17T07:22:06.314Z,6.50
2017-12-17T07:23:09.273Z,7.50
2017-12-17T07:24:12.231Z,10.00
2017-12-17T07:25:15.508Z,11.50
2017-12-17T07:26:18.373Z,10.00
2017-12-17T07:27:21.344Z,8.00
2017-12-17T07:28:24.295Z,8.00
2017-12-17T07:29:27.289Z,10.00
2017-12-17T07:30:30.250Z,13.00
2017-12-17T07:31:33.554Z,10.00
2017-12-17T07:32:36.525Z,9.50
2017-12-17T07:33:39.572Z,8.00
2017-12-17T07:34:42.542Z,9.00
2017-12-17T07:35:45.537Z,9.50
2017-12-17T07:36:48.471Z,8.00
2017-12-17T07:37:51.729Z,12.50
2017-12-17T07:38:54.726Z,10.50
2017-12-17T07:39:57.702Z,8.50
2017-12-17T07:41:00.671Z,10.00
2017-12-17T07:42:03.611Z,10.00
2017-12-17T07:43:06.528Z,9.50
2017-12-17T07:44:09.817Z,7.50
2017-12-17T07:45:12.766Z,7.00
2017-12-17T07:46:15.754Z,6.00
2017-12-17T07:47:18.752Z,8.00
2017-12-17T07:48:21.726Z,8.00
2017-12-17T07:49:24.675Z,6.50
2017-12-17T07:50:28.011Z,8.50
2017-12-17T07:51:30.949Z,9.00
2017-12-17T07:52:34.531Z,9.00
2017-12-17T07:53:37.500Z,10.00
2017-12-17T07:54:40.521Z,6.00
2017-12-17T07:55:43.461Z,10.00
2017-12-17T07:56:46.735Z,7.00
2017-12-17T07:57:50.161Z,8.50
2017-12-17T07:58:53.218Z,9.50
2017-12-17T07:59:56.232Z,13.00
2017-12-17T08:00:59.200Z,10.50
2017-12-17T08:02:02.154Z,7.50
2017-12-17T08:03:05.428Z,10.50
2017-12-17T08:04:08.436Z,10.00
2017-12-17T08:05:11.375Z,12.00
2017-12-17T08:06:14.353Z,11.50
2017-12-17T08:07:17.288Z,12.50
2017-12-17T08:08:20.231Z,11.00
2017-12-17T08:09:23.849Z,9.50
2017-12-17T08:10:26.746Z,8.00
2017-12-17T08:11:29.733Z,9.50
2017-12-17T08:12:32.666Z,11.00
2017-12-17T08:13:35.698Z,6.00
2017-12-17T08:14:38.741Z,11.00
2017-12-17T08:15:42.039Z,8.00
2017-12-17T08:16:45.010Z,7.00
2017-12-17T08:17:47.997Z,9.00
2017-12-17T08:18:50.919Z,9.00
2017-12-17T08:19:53.917Z,9.50
2017-12-17T08:20:57.013Z,9.50
2017-12-17T08:22:00.285Z,9.50
2017-12-17T08:23:03.294Z,9.00
2017-12-17T08:24:06.286Z,8.00
2017-12-17T08:25:09.265Z,9.50
2017-12-17T08:26:12.190Z,9.00
2017-12-17T08:27:15.428Z,9.50
2017-12-17T08:28:18.453Z,10.00
2017-12-17T08:29:21.442Z,7.00
2017-12-17T08:30:24.541Z,11.50
2017-12-17T08:31:27.495Z,5.50
2017-12-17T08:32:30.503Z,9.00
2017-12-17T08:33:33.791Z,9.50
2017-12-17T08:34:36.751Z,7.00
2017-12-17T08:35:39.834Z,8.00
2017-12-17T08:36:42.831Z,9.50
2017-12-17T08:37:45.809Z,6.00
2017-12-17T08:38:48.859Z,5.50
2017-12-17T08:39:52.345Z,5.50
2017-12-17T08:40:55.393Z,11.50
2017-12-17T08:41:58.381Z,7.00
2017-12-17T08:43:01.368Z,7.50
2017-12-17T08:44:04.365Z,8.00
2017-12-17T08:45:07.411Z,10.50
2017-12-17T08:46:10.759Z,5.50
2017-12-17T08:47:13.697Z,7.00
2017-12-17T08:48:16.672Z,8.50
2017-12-17T08:49:19.644Z,9.00
2017-12-17T08:50:22.711Z,10.00
2017-12-17T08:51:25.724Z,12.50
2017-12-17T08:52:29.033Z,7.50
2017-12-17T08:53:31.979Z,8.00
2017-12-17T08:54:34.954Z,10.00
2017-12-17T08:55:37.982Z,8.00
2017-12-17T08:56:40.952Z,8.00
2017-12-17T08:57:43.909Z,12.00
2017-12-17T08:58:47.293Z,7.00
2017-12-17T08:59:51.491Z,8.00
2017-12-17T09:00:54.370Z,7.50
2017-12-17T09:01:57.281Z,7.00
2017-12-17T09:03:00.176Z,6.00
2017-12-17T09:04:03.144Z,9.50
2017-12-17T09:05:06.922Z,8.00
2017-12-17T09:06:10.305Z,8.50
2017-12-17T09:07:13.323Z,5.50
2017-12-17T09:08:16.622Z,8.00
2017-12-17T09:09:20.883Z,4.00
2017-12-17T09:10:23.822Z,12.00
2017-12-17T09:11:27.277Z,7.00
2017-12-17T09:12:30.246Z,10.00
2017-12-17T09:13:33.202Z,6.00
2017-12-17T09:14:36.167Z,10.00
2017-12-17T09:15:39.146Z,8.50
2017-12-17T09:16:42.150Z,8.50
2017-12-17T09:17:45.568Z,8.00
2017-12-17T09:18:49.407Z,5.50
2017-12-17T09:19:52.398Z,6.50
2017-12-17T09:20:55.459Z,7.00
2017-12-17T09:21:58.643Z,6.50
2017-12-17T09:23:01.614Z,8.00
2017-12-17T09:24:04.647Z,7.50
2017-12-17T09:25:07.743Z,8.00
2017-12-17T09:26:10.684Z,7.00
2017-12-17T09:27:13.656Z,8.50
2017-12-17T09:28:16.765Z,8.50
2017-12-17T09:29:20.242Z,8.50
2017-12-17T09:30:23.764Z,12.50
2017-12-17T09:31:26.735Z,8.50
2017-12-17T09:32:29.817Z,8.00
2017-12-17T09:33:32.813Z,8.00
2017-12-17T09:34:35.866Z,9.00
2017-12-17T09:35:39.432Z,9.00
2017-12-17T09:36:42.464Z,8.00
2017-12-17T09:37:45.558Z,9.00
2017-12-17T09:38:49.590Z,9.50
2017-12-17T09:39:53.056Z,8.50
2017-12-17T09:40:56.142Z,12.50
2017-12-17T09:41:59.753Z,8.00
2017-12-17T09:43:02.809Z,10.50
2017-12-17T09:44:05.907Z,9.00
2017-12-17T09:45:08.937Z,8.00
2017-12-17T09:46:11.969Z,10.00
2017-12-17T09:47:14.906Z,8.00
2017-12-17T09:48:17.876Z,8.00
2017-12-17T09:49:20.855Z,7.50
2017-12-17T09:50:24.000Z,9.00
2017-12-17T09:51:28.330Z,10.00
2017-12-17T09:52:31.394Z,12.00
2017-12-17T09:53:34.729Z,9.00
2017-12-17T09:54:38.453Z,10.00
2017-12-17T09:55:41.472Z,10.50
2017-12-17T09:56:44.496Z,7.00
2017-12-17T09:57:48.829Z,8.00
2017-12-17T09:58:52.604Z,7.50
2017-12-17T09:59:58.021Z,7.50
2017-12-17T10:01:01.819Z,8.00
2017-12-17T10:02:06.595Z,6.00
2017-12-17T10:03:11.416Z,8.50
2017-12-17T10:04:14.778Z,10.00
2017-12-17T10:05:18.074Z,8.00
2017-12-17T10:06:22.044Z,6.00
2017-12-17T10:07:25.529Z,8.50
2017-12-17T10:08:29.198Z,12.00
2017-12-17T10:09:33.084Z,12.00
2017-12-17T10:10:38.019Z,9.50
2017-12-17T10:11:43.883Z,8.00
2017-12-17T10:12:48.798Z,7.50
2017-12-17T10:13:53.412Z,9.50
2017-12-17T10:14:57.995Z,7.00
2017-12-17T10:16:02.217Z,8.00
2017-12-17T10:17:06.555Z,10.50
2017-12-17T10:18:09.723Z,8.00
2017-12-17T10:19:13.987Z,8.50
2017-12-17T10:20:18.262Z,9.00
2017-12-17T10:21:22.392Z,4.00
2017-12-17T10:22:26.525Z,8.50
2017-12-17T10:23:31.411Z,8.00
2017-12-17T10:24:36.424Z,10.50
2017-12-17T10:25:41.342Z,7.00
2017-12-17T10:26:46.003Z,7.50
2017-12-17T10:27:50.917Z,9.00
2017-12-17T10:28:54.986Z,10.00
2017-12-17T10:29:59.505Z,12.00
2017-12-17T10:31:02.847Z,8.00
2017-12-17T10:32:06.553Z,8.00
2017-12-17T10:33:11.145Z,8.00
2017-12-17T10:34:15.879Z,10.00
2017-12-17T10:35:20.426Z,6.00
2017-12-17T10:36:24.864Z,10.00
2017-12-17T10:37:28.628Z,11.00
2017-12-17T10:38:32.766Z,7.00
2017-12-17T10:39:37.147Z,12.50
2017-12-17T10:40:42.135Z,11.50
2017-12-17T10:41:46.875Z,14.50
2017-12-17T10:42:50.984Z,11.00
2017-12-17T10:43:54.771Z,9.50
2017-12-17T10:44:59.733Z,12.00
2017-12-17T10:46:04.570Z,11.50
2017-12-17T10:47:09.517Z,7.50
2017-12-17T10:48:14.643Z,8.50
2017-12-17T10:49:21.444Z,6.00
2017-12-17T10:50:26.867Z,8.50
2017-12-17T10:51:31.815Z,10.00
2017-12-17T10:52:34.796Z,9.00
2017-12-17T10:53:38.446Z,6.50
2017-12-17T10:54:43.664Z,9.00
2017-12-17T10:55:47.492Z,8.00
2017-12-17T10:56:51.677Z,6.00
2017-12-17T10:57:57.258Z,8.50
2017-12-17T10:59:02.331Z,7.00
2017-12-17T11:00:06.963Z,8.00
2017-12-17T11:01:11.805Z,10.00
2017-12-17T11:02:16.476Z,6.00
2017-12-17T11:03:21.407Z,9.50
2017-12-17T11:04:26.837Z,10.00
2017-12-17T11:05:32.141Z,8.00
2017-12-17T11:06:39.473Z,8.00
2017-12-17T11:07:45.225Z,12.50
2017-12-17T11:08:50.218Z,8.50
2017-12-17T11:09:54.783Z,8.00
2017-12-17T11:11:01.448Z,8.00
2017-12-17T11:12:06.258Z,8.00
2017-12-17T11:13:11.118Z,8.50
2017-12-17T11:14:16.620Z,10.50
2017-12-17T11:15:22.206Z,9.50
2017-12-17T11:16:26.970Z,9.00
2017-12-17T11:17:32.341Z,11.50
2017-12-17T11:18:37.599Z,10.00
2017-12-17T11:19:42.039Z,13.50
2017-12-17T11:20:45.940Z,10.50
2017-12-17T11:21:49.758Z,4.50
2017-12-17T11:22:54.003Z,8.00
2017-12-17T11:23:59.161Z,9.00
2017-12-17T11:25:04.399Z,10.00
2017-12-17T11:26:10.601Z,6.50
2017-12-17T11:27:17.038Z,8.00
2017-12-17T11:28:22.144Z,8.50
2017-12-17T11:29:28.082Z,4.50
2017-12-17T11:30:33.137Z,9.50
2017-12-17T11:31:39.264Z,9.00
2017-12-17T11:32:44.680Z,6.00
2017-12-17T11:33:49.882Z,6.00
2017-12-17T11:34:53.874Z,9.00
2017-12-17T11:35:59.604Z,5.50
2017-12-17T11:37:04.379Z,8.50
2017-12-17T11:38:10.575Z,4.00
2017-12-17T11:39:15.954Z,6.00
2017-12-17T11:40:21.446Z,8.50
2017-12-17T11:41:26.722Z,10.00
2017-12-17T11:42:32.203Z,8.00
2017-12-17T11:43:37.972Z,4.00
2017-12-17T11:44:43.773Z,6.00
2017-12-17T11:45:49.349Z,8.00
2017-12-17T11:46:55.963Z,7.50
2017-12-17T11:47:59.792Z,6.50
2017-12-17T11:49:06.023Z,9.00
2017-12-17T11:50:11.228Z,6.00
2017-12-17T11:51:16.608Z,7.00
2017-12-17T11:52:23.753Z,8.50
2017-12-17T11:53:29.200Z,7.50
2017-12-17T11:54:36.168Z,8.00
2017-12-17T11:55:43.969Z,8.00
2017-12-17T11:56:49.333Z,6.00
2017-12-17T11:57:54.346Z,5.50
2017-12-17T11:59:00.423Z,8.00
2017-12-17T12:00:06.120Z,6.00
2017-12-17T12:01:11.175Z,6.50
2017-12-17T12:02:16.414Z,10.50
2017-12-17T12:03:21.860Z,7.50
2017-12-17T12:04:27.158Z,7.00
2017-12-17T12:05:32.481Z,6.00
2017-12-17T12:06:38.410Z,9.50
2017-12-17T12:07:44.077Z,7.00
2017-12-17T12:08:49.520Z,10.50
2017-12-17T12:09:54.955Z,7.50
2017-12-17T12:11:00.976Z,6.00
2017-12-17T12:12:07.165Z,8.50
2017-12-17T12:13:11.893Z,8.00
2017-12-17T12:14:17.379Z,9.00
2017-12-17T12:15:23.540Z,8.00
2017-12-17T12:16:30.311Z,8.00
2017-12-17T12:17:35.919Z,5.00
2017-12-17T12:18:41.571Z,6.00
2017-12-17T12:19:47.576Z,6.50
2017-12-17T12:20:57.834Z,6.50
2017-12-17T12:22:04.765Z,5.00
2017-12-17T12:23:11.065Z,10.50
2017-12-17T12:24:16.013Z,9.00
2017-12-17T12:25:24.265Z,8.00
2017-12-17T12:26:34.280Z,8.00
2017-12-17T12:27:42.366Z,10.50
2017-12-17T12:28:48.499Z,6.50
2017-12-17T12:29:54.684Z,10.00
2017-12-17T12:31:02.435Z,9.50
2017-12-17T12:32:09.830Z,11.00
2017-12-17T12:33:16.369Z,10.00
2017-12-17T12:34:21.120Z,8.00
2017-12-17T12:35:27.096Z,9.50
2017-12-17T12:36:33.175Z,10.00
2017-12-17T12:37:39.873Z,10.00
2017-12-17T12:38:46.641Z,13.00
2017-12-17T12:39:53.018Z,14.00
2017-12-17T12:41:00.244Z,10.00
2017-12-17T12:42:07.154Z,8.00
2017-12-17T12:43:12.834Z,6.00
2017-12-17T12:44:19.206Z,6.00
2017-12-17T12:45:24.588Z,12.00
2017-12-17T12:46:31.132Z,9.50
2017-12-17T12:47:37.254Z,10.00
2017-12-17T12:48:44.918Z,9.00
2017-12-17T12:49:50.728Z,9.50
2017-12-17T12:50:57.926Z,8.00
2017-12-17T12:52:05.109Z,4.00
2017-12-17T12:53:13.083Z,8.50
2017-12-17T12:54:22.013Z,8.50
2017-12-17T12:55:27.201Z,7.00
2017-12-17T12:56:34.098Z,6.00
2017-12-17T12:57:40.249Z,8.00
2017-12-17T12:58:47.405Z,9.00
2017-12-17T12:59:53.591Z,7.50
2017-12-17T13:01:01.586Z,4.50
2017-12-17T13:02:09.967Z,9.50
2017-12-17T13:03:17.065Z,9.00
2017-12-17T13:04:23.188Z,8.50
2017-12-17T13:05:30.388Z,6.00
2017-12-17T13:06:37.214Z,10.00
2017-12-17T13:07:43.927Z,8.00
2017-12-17T13:08:53.098Z,9.50
2017-12-17T13:10:00.368Z,9.50
2017-12-17T13:11:06.394Z,8.00
2017-12-17T13:12:14.695Z,9.50
2017-12-17T13:13:20.665Z,7.50
2017-12-17T13:14:27.232Z,11.50
2017-12-17T13:15:33.415Z,8.00
2017-12-17T13:16:39.057Z,4.00
2017-12-17T13:17:46.402Z,5.00
2017-12-17T13:18:53.140Z,6.50
2017-12-17T13:20:00.287Z,6.00
2017-12-17T13:21:06.953Z,5.50
2017-12-17T13:22:13.597Z,6.00
2017-12-17T13:23:21.488Z,11.00
2017-12-17T13:24:30.340Z,8.00
2017-12-17T13:25:39.540Z,8.50
2017-12-17T13:26:47.990Z,7.00
2017-12-17T13:27:55.219Z,9.00
2017-12-17T13:29:03.575Z,6.00
2017-12-17T13:30:13.611Z,8.50
2017-12-17T13:31:21.099Z,12.50
2017-12-17T13:32:33.061Z,9.50
2017-12-17T13:33:41.475Z,5.50
2017-12-17T13:34:49.076Z,15.00
2017-12-17T13:36:00.386Z,9.50
2017-12-17T13:37:08.888Z,6.00
2017-12-17T13:38:18.379Z,6.00
2017-12-17T13:39:26.969Z,11.00
2017-12-17T13:40:37.189Z,7.00
2017-12-17T13:41:44.807Z,6.50
2017-12-17T13:42:50.481Z,6.00
2017-12-17T13:43:59.303Z,11.50
2017-12-17T13:45:06.170Z,10.00
2017-12-17T13:46:16.172Z,10.00
2017-12-17T13:47:22.720Z,14.50
2017-12-17T13:48:30.572Z,8.00
2017-12-17T13:49:41.596Z,16.00
2017-12-17T13:50:50.889Z,9.00
2017-12-17T13:51:57.480Z,13.00
2017-12-17T13:53:07.418Z,9.50
2017-12-17T13:55:29.745Z,8.00
2017-12-17T13:56:41.144Z,8.50
2017-12-17T13:57:51.730Z,7.50
2017-12-17T13:58:57.354Z,9.00
2017-12-17T14:00:03.478Z,10.00
2017-12-17T14:01:14.493Z,6.50
2017-12-17T14:02:22.367Z,9.00
2017-12-17T14:03:31.713Z,9.00
2017-12-17T14:04:40.983Z,14.00
2017-12-17T14:05:49.498Z,10.00
2017-12-17T14:06:57.244Z,14.50
2017-12-17T14:08:09.393Z,12.00